Terminal Aerodrome Forecast
Issued by NWS Wilmington, OH

Current Version | Previous Version | Graphics & Text | Print | Product List | Glossary On
Versions: 1 2 3 4 5 6 7 8 9 10 11 12 13 14 15 16 17 18 19 20 21 22
000
FTUS41 KILN 202251 AAG
TAFILN
TAF AMD
KILN 202251Z 2023/2118 23013KT P6SM -SHRA VCTS SCT050CB BKN100
      TEMPO 2023/2103 VRB15G25KT 2SM TSRA OVC025CB
     FM210300 23011KT 5SM -SHRA VCTS OVC050CB
     FM210600 26010KT P6SM VCSH BKN018
     FM211400 31007KT P6SM BKN040=

USA.gov is the U.S. government's official web portal to all federal, state and local government web resources and services.